sensor_id;sensor_type;location;lat;lon;timestamp;temperature;humidity
30983;DHT22;17660;52.578;13.288;2023-04-15T00:01:50;10.30;99.90
30983;DHT22;17660;52.578;13.288;2023-04-15T00:04:17;10.30;99.90
30983;DHT22;17660;52.578;13.288;2023-04-15T00:06:48;10.40;99.90
30983;DHT22;17660;52.578;13.288;2023-04-15T00:09:15;10.40;99.90
30983;DHT22;17660;52.578;13.288;2023-04-15T00:11:42;10.40;99.90
30983;DHT22;17660;52.578;13.288;2023-04-15T00:14:08;10.40;99.90
30983;DHT22;17660;52.578;13.288;2023-04-15T00:16:35;10.30;99.90
30983;DHT22;17660;52.578;13.288;2023-04-15T00:19:01;10.40;99.90
30983;DHT22;17660;52.578;13.288;2023-04-15T00:21:29;10.30;99.90
30983;DHT22;17660;52.578;13.288;2023-04-15T00:23:55;10.30;99.90
30983;DHT22;17660;52.578;13.288;2023-04-15T00:26:22;10.30;99.90
30983;DHT22;17660;52.578;13.288;2023-04-15T00:28:49;10.40;99.90
30983;DHT22;17660;52.578;13.288;2023-04-15T00:31:16;10.40;99.90
30983;DHT22;17660;52.578;13.288;2023-04-15T00:33:42;10.30;99.90
30983;DHT22;17660;52.578;13.288;2023-04-15T00:36:10;10.40;99.90
30983;DHT22;17660;52.578;13.288;2023-04-15T00:38:36;10.30;99.90
30983;DHT22;17660;52.578;13.288;2023-04-15T00:41:03;10.30;99.90
30983;DHT22;17660;52.578;13.288;2023-04-15T00:43:30;10.30;99.90
30983;DHT22;17660;52.578;13.288;2023-04-15T00:45:57;10.30;99.90
30983;DHT22;17660;52.578;13.288;2023-04-15T00:48:24;10.30;99.90
30983;DHT22;17660;52.578;13.288;2023-04-15T00:50:52;10.20;99.90
30983;DHT22;17660;52.578;13.288;2023-04-15T00:53:19;10.30;99.90
30983;DHT22;17660;52.578;13.288;2023-04-15T00:55:45;10.30;99.90
30983;DHT22;17660;52.578;13.288;2023-04-15T00:58:12;10.30;99.90
30983;DHT22;17660;52.578;13.288;2023-04-15T01:00:39;10.20;99.90
30983;DHT22;17660;52.578;13.288;2023-04-15T01:03:06;10.10;99.90
30983;DHT22;17660;52.578;13.288;2023-04-15T01:05:34;10.10;99.90
30983;DHT22;17660;52.578;13.288;2023-04-15T01:08:01;10.10;99.90
30983;DHT22;17660;52.578;13.288;2023-04-15T01:10:28;10.10;99.90
30983;DHT22;17660;52.578;13.288;2023-04-15T01:12:55;10.10;99.90
30983;DHT22;17660;52.578;13.288;2023-04-15T01:15:22;10.10;99.90
30983;DHT22;17660;52.578;13.288;2023-04-15T01:17:48;10.10;99.90
30983;DHT22;17660;52.578;13.288;2023-04-15T01:20:15;10.20;99.90
30983;DHT22;17660;52.578;13.288;2023-04-15T01:22:42;10.20;99.90
30983;DHT22;17660;52.578;13.288;2023-04-15T01:25:10;10.20;99.90
30983;DHT22;17660;52.578;13.288;2023-04-15T01:27:38;10.20;99.90
30983;DHT22;17660;52.578;13.288;2023-04-15T01:30:06;10.20;99.90
30983;DHT22;17660;52.578;13.288;2023-04-15T01:32:33;10.20;99.90
30983;DHT22;17660;52.578;13.288;2023-04-15T01:34:59;10.20;99.90
30983;DHT22;17660;52.578;13.288;2023-04-15T01:37:26;10.20;99.90
30983;DHT22;17660;52.578;13.288;2023-04-15T01:39:53;10.10;99.90
30983;DHT22;17660;52.578;13.288;2023-04-15T01:42:20;10.10;99.90
30983;DHT22;17660;52.578;13.288;2023-04-15T01:44:47;10.10;99.90
30983;DHT22;17660;52.578;13.288;2023-04-15T01:47:13;10.10;99.90
30983;DHT22;17660;52.578;13.288;2023-04-15T01:49:40;10.10;99.90
30983;DHT22;17660;52.578;13.288;2023-04-15T01:52:07;10.10;99.90
30983;DHT22;17660;52.578;13.288;2023-04-15T01:54:34;10.10;99.90
30983;DHT22;17660;52.578;13.288;2023-04-15T01:57:01;10.20;99.90
30983;DHT22;17660;52.578;13.288;2023-04-15T01:59:29;10.10;99.90
30983;DHT22;17660;52.578;13.288;2023-04-15T02:01:56;10.10;99.90
30983;DHT22;17660;52.578;13.288;2023-04-15T02:04:23;10.20;99.90
30983;DHT22;17660;52.578;13.288;2023-04-15T02:06:49;10.10;99.90
30983;DHT22;17660;52.578;13.288;2023-04-15T02:09:16;10.20;99.90
30983;DHT22;17660;52.578;13.288;2023-04-15T02:11:43;10.20;99.90
30983;DHT22;17660;52.578;13.288;2023-04-15T02:14:10;10.20;99.90
30983;DHT22;17660;52.578;13.288;2023-04-15T02:16:36;10.20;99.90
30983;DHT22;17660;52.578;13.288;2023-04-15T02:19:03;10.20;99.90
30983;DHT22;17660;52.578;13.288;2023-04-15T02:21:30;10.20;99.90
30983;DHT22;17660;52.578;13.288;2023-04-15T02:23:56;10.20;99.90
30983;DHT22;17660;52.578;13.288;2023-04-15T02:26:23;10.20;99.90
30983;DHT22;17660;52.578;13.288;2023-04-15T02:28:50;10.10;99.90
30983;DHT22;17660;52.578;13.288;2023-04-15T02:31:17;10.20;99.90
30983;DHT22;17660;52.578;13.288;2023-04-15T02:33:44;10.20;99.90
30983;DHT22;17660;52.578;13.288;2023-04-15T02:36:10;10.20;99.90
30983;DHT22;17660;52.578;13.288;2023-04-15T02:38:37;10.20;99.90
30983;DHT22;17660;52.578;13.288;2023-04-15T02:41:08;10.20;99.90
30983;DHT22;17660;52.578;13.288;2023-04-15T02:43:35;10.10;99.90
30983;DHT22;17660;52.578;13.288;2023-04-15T02:46:01;10.20;99.90
30983;DHT22;17660;52.578;13.288;2023-04-15T02:48:28;10.20;99.90
30983;DHT22;17660;52.578;13.288;2023-04-15T02:51:09;10.20;99.90
30983;DHT22;17660;52.578;13.288;2023-04-15T02:53:36;10.20;99.90
30983;DHT22;17660;52.578;13.288;2023-04-15T02:56:03;10.10;99.90
30983;DHT22;17660;52.578;13.288;2023-04-15T02:58:29;10.20;99.90
30983;DHT22;17660;52.578;13.288;2023-04-15T03:00:56;10.10;99.90
30983;DHT22;17660;52.578;13.288;2023-04-15T03:03:23;10.20;99.90
30983;DHT22;17660;52.578;13.288;2023-04-15T03:05:49;10.10;99.90
30983;DHT22;17660;52.578;13.288;2023-04-15T03:08:16;10.10;99.90
30983;DHT22;17660;52.578;13.288;2023-04-15T03:10:43;10.10;99.90
30983;DHT22;17660;52.578;13.288;2023-04-15T03:13:09;10.20;99.90
30983;DHT22;17660;52.578;13.288;2023-04-15T03:15:36;10.20;99.90
30983;DHT22;17660;52.578;13.288;2023-04-15T03:18:03;10.20;99.90
30983;DHT22;17660;52.578;13.288;2023-04-15T03:20:29;10.20;99.90
30983;DHT22;17660;52.578;13.288;2023-04-15T03:22:57;10.20;99.90
30983;DHT22;17660;52.578;13.288;2023-04-15T03:25:23;10.20;99.90
30983;DHT22;17660;52.578;13.288;2023-04-15T03:27:50;10.20;99.90
30983;DHT22;17660;52.578;13.288;2023-04-15T03:30:17;10.10;99.90
30983;DHT22;17660;52.578;13.288;2023-04-15T03:32:44;10.20;99.90
30983;DHT22;17660;52.578;13.288;2023-04-15T03:35:10;10.20;99.90
30983;DHT22;17660;52.578;13.288;2023-04-15T03:37:37;10.20;99.90
30983;DHT22;17660;52.578;13.288;2023-04-15T03:40:04;10.10;99.90
30983;DHT22;17660;52.578;13.288;2023-04-15T03:42:30;10.10;99.90
30983;DHT22;17660;52.578;13.288;2023-04-15T03:44:57;10.10;99.90
30983;DHT22;17660;52.578;13.288;2023-04-15T03:47:24;10.20;99.90
30983;DHT22;17660;52.578;13.288;2023-04-15T03:49:51;10.20;99.90
30983;DHT22;17660;52.578;13.288;2023-04-15T03:52:17;10.20;99.90
30983;DHT22;17660;52.578;13.288;2023-04-15T03:54:44;10.20;99.90
30983;DHT22;17660;52.578;13.288;2023-04-15T03:57:11;10.10;99.90
30983;DHT22;17660;52.578;13.288;2023-04-15T03:59:38;10.10;99.90
30983;DHT22;17660;52.578;13.288;2023-04-15T04:02:04;10.20;99.90
30983;DHT22;17660;52.578;13.288;2023-04-15T04:04:31;10.30;99.90
30983;DHT22;17660;52.578;13.288;2023-04-15T04:06:58;10.20;99.90
30983;DHT22;17660;52.578;13.288;2023-04-15T04:09:24;10.20;99.90
30983;DHT22;17660;52.578;13.288;2023-04-15T04:11:51;10.20;99.90
30983;DHT22;17660;52.578;13.288;2023-04-15T04:14:17;10.30;99.90
30983;DHT22;17660;52.578;13.288;2023-04-15T04:16:44;10.30;99.90
30983;DHT22;17660;52.578;13.288;2023-04-15T04:19:11;10.30;99.90
30983;DHT22;17660;52.578;13.288;2023-04-15T04:21:37;10.30;99.90
30983;DHT22;17660;52.578;13.288;2023-04-15T04:24:05;10.20;99.90
30983;DHT22;17660;52.578;13.288;2023-04-15T04:26:31;10.20;99.90
30983;DHT22;17660;52.578;13.288;2023-04-15T04:28:58;10.30;99.90
30983;DHT22;17660;52.578;13.288;2023-04-15T04:31:25;10.20;99.90
30983;DHT22;17660;52.578;13.288;2023-04-15T04:33:52;10.30;99.90
30983;DHT22;17660;52.578;13.288;2023-04-15T04:36:19;10.30;99.90
30983;DHT22;17660;52.578;13.288;2023-04-15T04:38:45;10.30;99.90
30983;DHT22;17660;52.578;13.288;2023-04-15T04:41:12;10.30;99.90
30983;DHT22;17660;52.578;13.288;2023-04-15T04:43:39;10.30;99.90
30983;DHT22;17660;52.578;13.288;2023-04-15T04:46:05;10.30;99.90
30983;DHT22;17660;52.578;13.288;2023-04-15T04:48:32;10.30;99.90
30983;DHT22;17660;52.578;13.288;2023-04-15T04:50:59;10.50;99.90
30983;DHT22;17660;52.578;13.288;2023-04-15T04:53:26;10.40;99.90
30983;DHT22;17660;52.578;13.288;2023-04-15T04:55:53;10.40;99.90
30983;DHT22;17660;52.578;13.288;2023-04-15T04:58:19;10.40;99.90
30983;DHT22;17660;52.578;13.288;2023-04-15T05:00:46;10.40;99.90
30983;DHT22;17660;52.578;13.288;2023-04-15T05:03:13;10.40;99.90
30983;DHT22;17660;52.578;13.288;2023-04-15T05:05:40;10.40;99.90
30983;DHT22;17660;52.578;13.288;2023-04-15T05:08:07;10.40;99.90
30983;DHT22;17660;52.578;13.288;2023-04-15T05:10:33;10.40;99.90
30983;DHT22;17660;52.578;13.288;2023-04-15T05:13:00;10.40;99.90
30983;DHT22;17660;52.578;13.288;2023-04-15T05:15:27;10.40;99.90
30983;DHT22;17660;52.578;13.288;2023-04-15T05:17:54;10.40;99.90
30983;DHT22;17660;52.578;13.288;2023-04-15T05:20:20;10.40;99.90
30983;DHT22;17660;52.578;13.288;2023-04-15T05:22:47;10.50;99.90
30983;DHT22;17660;52.578;13.288;2023-04-15T05:25:14;10.60;99.90
30983;DHT22;17660;52.578;13.288;2023-04-15T05:27:40;10.60;99.90
30983;DHT22;17660;52.578;13.288;2023-04-15T05:30:07;10.60;99.90
30983;DHT22;17660;52.578;13.288;2023-04-15T05:32:34;10.60;99.90
30983;DHT22;17660;52.578;13.288;2023-04-15T05:35:01;10.60;99.90
30983;DHT22;17660;52.578;13.288;2023-04-15T05:37:27;10.60;99.90
30983;DHT22;17660;52.578;13.288;2023-04-15T05:39:54;10.60;99.90
30983;DHT22;17660;52.578;13.288;2023-04-15T05:42:21;10.60;99.90
30983;DHT22;17660;52.578;13.288;2023-04-15T05:44:47;10.60;99.90
30983;DHT22;17660;52.578;13.288;2023-04-15T05:47:14;10.60;99.90
30983;DHT22;17660;52.578;13.288;2023-04-15T05:49:41;10.70;99.90
30983;DHT22;17660;52.578;13.288;2023-04-15T05:52:07;10.70;99.90
30983;DHT22;17660;52.578;13.288;2023-04-15T05:54:34;10.70;99.90
30983;DHT22;17660;52.578;13.288;2023-04-15T05:57:01;10.70;99.90
30983;DHT22;17660;52.578;13.288;2023-04-15T05:59:29;10.80;99.90
30983;DHT22;17660;52.578;13.288;2023-04-15T06:01:56;10.80;99.90
30983;DHT22;17660;52.578;13.288;2023-04-15T06:04:22;10.90;99.90
30983;DHT22;17660;52.578;13.288;2023-04-15T06:06:49;10.90;99.90
30983;DHT22;17660;52.578;13.288;2023-04-15T06:09:16;10.90;99.90
30983;DHT22;17660;52.578;13.288;2023-04-15T06:11:43;11.00;99.90
30983;DHT22;17660;52.578;13.288;2023-04-15T06:14:09;11.00;99.90
30983;DHT22;17660;52.578;13.288;2023-04-15T06:16:36;11.00;99.90
30983;DHT22;17660;52.578;13.288;2023-04-15T06:19:03;11.00;99.90
30983;DHT22;17660;52.578;13.288;2023-04-15T06:21:30;11.00;99.90
30983;DHT22;17660;52.578;13.288;2023-04-15T06:23:57;11.20;99.90
30983;DHT22;17660;52.578;13.288;2023-04-15T06:26:24;11.10;99.90
30983;DHT22;17660;52.578;13.288;2023-04-15T06:28:51;11.10;99.90
30983;DHT22;17660;52.578;13.288;2023-04-15T06:31:18;11.20;99.90
30983;DHT22;17660;52.578;13.288;2023-04-15T06:33:45;11.20;99.90
30983;DHT22;17660;52.578;13.288;2023-04-15T06:36:12;11.20;99.90
30983;DHT22;17660;52.578;13.288;2023-04-15T06:38:38;11.30;99.90
30983;DHT22;17660;52.578;13.288;2023-04-15T06:41:05;11.30;99.90
30983;DHT22;17660;52.578;13.288;2023-04-15T06:43:32;11.40;99.90
30983;DHT22;17660;52.578;13.288;2023-04-15T06:45:59;11.50;99.90
30983;DHT22;17660;52.578;13.288;2023-04-15T06:48:25;11.50;99.90
30983;DHT22;17660;52.578;13.288;2023-04-15T06:50:53;11.60;99.90
30983;DHT22;17660;52.578;13.288;2023-04-15T06:53:20;11.70;99.90
30983;DHT22;17660;52.578;13.288;2023-04-15T06:55:47;11.80;99.90
30983;DHT22;17660;52.578;13.288;2023-04-15T06:58:14;11.80;99.90
30983;DHT22;17660;52.578;13.288;2023-04-15T07:00:40;11.90;99.90
30983;DHT22;17660;52.578;13.288;2023-04-15T07:03:07;11.90;99.90
30983;DHT22;17660;52.578;13.288;2023-04-15T07:05:36;12.00;99.90
30983;DHT22;17660;52.578;13.288;2023-04-15T07:08:03;12.00;99.90
30983;DHT22;17660;52.578;13.288;2023-04-15T07:10:30;11.90;99.90
30983;DHT22;17660;52.578;13.288;2023-04-15T07:12:57;11.90;99.90
30983;DHT22;17660;52.578;13.288;2023-04-15T07:15:23;11.90;99.90
30983;DHT22;17660;52.578;13.288;2023-04-15T07:17:50;11.90;99.90
30983;DHT22;17660;52.578;13.288;2023-04-15T07:20:17;11.90;99.90
30983;DHT22;17660;52.578;13.288;2023-04-15T07:22:43;11.90;99.90
30983;DHT22;17660;52.578;13.288;2023-04-15T07:25:10;11.90;99.90
30983;DHT22;17660;52.578;13.288;2023-04-15T07:27:37;11.90;99.90
30983;DHT22;17660;52.578;13.288;2023-04-15T07:30:03;12.00;99.90
30983;DHT22;17660;52.578;13.288;2023-04-15T07:32:30;11.90;99.90
30983;DHT22;17660;52.578;13.288;2023-04-15T07:34:57;11.90;99.90
30983;DHT22;17660;52.578;13.288;2023-04-15T07:37:23;11.90;99.90
30983;DHT22;17660;52.578;13.288;2023-04-15T07:39:50;11.90;99.90
30983;DHT22;17660;52.578;13.288;2023-04-15T07:42:18;11.90;99.90
30983;DHT22;17660;52.578;13.288;2023-04-15T07:44:45;11.90;99.90
30983;DHT22;17660;52.578;13.288;2023-04-15T07:47:11;11.90;99.90
30983;DHT22;17660;52.578;13.288;2023-04-15T07:49:40;11.90;99.90
30983;DHT22;17660;52.578;13.288;2023-04-15T07:52:07;11.90;99.90
30983;DHT22;17660;52.578;13.288;2023-04-15T07:54:33;11.80;99.90
30983;DHT22;17660;52.578;13.288;2023-04-15T07:57:00;11.90;99.90
30983;DHT22;17660;52.578;13.288;2023-04-15T07:59:28;11.80;99.90
30983;DHT22;17660;52.578;13.288;2023-04-15T08:01:56;11.90;99.90
30983;DHT22;17660;52.578;13.288;2023-04-15T08:04:23;11.90;99.90
30983;DHT22;17660;52.578;13.288;2023-04-15T08:06:50;11.90;99.90
30983;DHT22;17660;52.578;13.288;2023-04-15T08:09:17;11.90;99.90
30983;DHT22;17660;52.578;13.288;2023-04-15T08:11:46;11.90;99.90
30983;DHT22;17660;52.578;13.288;2023-04-15T08:14:12;11.90;99.90
30983;DHT22;17660;52.578;13.288;2023-04-15T08:16:39;11.90;99.90
30983;DHT22;17660;52.578;13.288;2023-04-15T08:19:06;11.90;99.90
30983;DHT22;17660;52.578;13.288;2023-04-15T08:21:32;12.00;99.90
30983;DHT22;17660;52.578;13.288;2023-04-15T08:23:59;11.90;99.90
30983;DHT22;17660;52.578;13.288;2023-04-15T08:26:27;11.80;99.90
30983;DHT22;17660;52.578;13.288;2023-04-15T08:28:53;11.80;99.90
30983;DHT22;17660;52.578;13.288;2023-04-15T08:31:20;11.80;99.90
30983;DHT22;17660;52.578;13.288;2023-04-15T08:33:47;11.80;99.90
30983;DHT22;17660;52.578;13.288;2023-04-15T08:36:14;11.80;99.90
30983;DHT22;17660;52.578;13.288;2023-04-15T08:38:41;11.90;99.90
30983;DHT22;17660;52.578;13.288;2023-04-15T08:41:11;11.80;99.90
30983;DHT22;17660;52.578;13.288;2023-04-15T08:43:48;11.90;99.90
30983;DHT22;17660;52.578;13.288;2023-04-15T08:46:17;12.00;99.90
30983;DHT22;17660;52.578;13.288;2023-04-15T08:48:44;12.20;99.90
30983;DHT22;17660;52.578;13.288;2023-04-15T08:51:12;12.50;99.90
30983;DHT22;17660;52.578;13.288;2023-04-15T08:53:44;12.50;99.90
30983;DHT22;17660;52.578;13.288;2023-04-15T08:56:13;12.40;99.90
30983;DHT22;17660;52.578;13.288;2023-04-15T08:58:44;12.40;99.90
30983;DHT22;17660;52.578;13.288;2023-04-15T09:01:12;12.40;99.90
30983;DHT22;17660;52.578;13.288;2023-04-15T09:03:38;12.40;99.90
30983;DHT22;17660;52.578;13.288;2023-04-15T09:06:06;12.30;99.90
30983;DHT22;17660;52.578;13.288;2023-04-15T09:08:33;12.30;99.90
30983;DHT22;17660;52.578;13.288;2023-04-15T09:11:02;12.30;99.90
30983;DHT22;17660;52.578;13.288;2023-04-15T09:13:29;12.30;99.90
30983;DHT22;17660;52.578;13.288;2023-04-15T09:15:56;12.20;99.90
30983;DHT22;17660;52.578;13.288;2023-04-15T09:18:30;12.20;99.90
30983;DHT22;17660;52.578;13.288;2023-04-15T09:21:04;12.20;99.90
30983;DHT22;17660;52.578;13.288;2023-04-15T09:23:32;12.20;99.90
30983;DHT22;17660;52.578;13.288;2023-04-15T09:25:59;12.20;99.90
30983;DHT22;17660;52.578;13.288;2023-04-15T09:28:27;12.20;99.90
30983;DHT22;17660;52.578;13.288;2023-04-15T09:31:00;12.10;99.90
30983;DHT22;17660;52.578;13.288;2023-04-15T09:33:28;12.10;99.90
30983;DHT22;17660;52.578;13.288;2023-04-15T09:35:59;12.10;99.90
30983;DHT22;17660;52.578;13.288;2023-04-15T09:38:26;12.10;99.90
30983;DHT22;17660;52.578;13.288;2023-04-15T09:40:53;12.20;99.90
30983;DHT22;17660;52.578;13.288;2023-04-15T09:43:20;12.10;99.90
30983;DHT22;17660;52.578;13.288;2023-04-15T09:45:53;12.10;99.90
30983;DHT22;17660;52.578;13.288;2023-04-15T09:48:21;12.20;99.90
30983;DHT22;17660;52.578;13.288;2023-04-15T09:50:48;12.20;99.90
30983;DHT22;17660;52.578;13.288;2023-04-15T09:53:16;12.10;99.90
30983;DHT22;17660;52.578;13.288;2023-04-15T09:55:50;12.10;99.90
30983;DHT22;17660;52.578;13.288;2023-04-15T09:58:20;12.10;99.90
30983;DHT22;17660;52.578;13.288;2023-04-15T10:00:48;12.20;99.90
30983;DHT22;17660;52.578;13.288;2023-04-15T10:03:23;12.10;99.90
30983;DHT22;17660;52.578;13.288;2023-04-15T10:05:51;12.20;99.90
30983;DHT22;17660;52.578;13.288;2023-04-15T10:08:18;12.30;99.90
30983;DHT22;17660;52.578;13.288;2023-04-15T10:10:46;12.30;99.90
30983;DHT22;17660;52.578;13.288;2023-04-15T10:13:16;12.10;99.90
30983;DHT22;17660;52.578;13.288;2023-04-15T10:15:43;12.10;99.90
30983;DHT22;17660;52.578;13.288;2023-04-15T10:18:11;12.20;99.90
30983;DHT22;17660;52.578;13.288;2023-04-15T10:20:38;12.20;99.90
30983;DHT22;17660;52.578;13.288;2023-04-15T10:23:06;12.20;99.90
30983;DHT22;17660;52.578;13.288;2023-04-15T10:25:36;12.10;99.90
30983;DHT22;17660;52.578;13.288;2023-04-15T10:28:03;12.20;99.90
30983;DHT22;17660;52.578;13.288;2023-04-15T10:30:32;12.20;99.90
30983;DHT22;17660;52.578;13.288;2023-04-15T10:32:59;12.30;99.90
30983;DHT22;17660;52.578;13.288;2023-04-15T10:35:27;12.30;99.90
30983;DHT22;17660;52.578;13.288;2023-04-15T10:37:56;12.30;99.90
30983;DHT22;17660;52.578;13.288;2023-04-15T10:40:23;12.30;99.90
30983;DHT22;17660;52.578;13.288;2023-04-15T10:42:52;12.30;99.90
30983;DHT22;17660;52.578;13.288;2023-04-15T10:45:18;12.40;99.90
30983;DHT22;17660;52.578;13.288;2023-04-15T10:47:45;12.40;99.90
30983;DHT22;17660;52.578;13.288;2023-04-15T10:50:12;12.40;99.90
30983;DHT22;17660;52.578;13.288;2023-04-15T10:52:39;12.40;99.90
30983;DHT22;17660;52.578;13.288;2023-04-15T10:55:14;12.40;99.90
30983;DHT22;17660;52.578;13.288;2023-04-15T10:57:41;12.40;99.90
30983;DHT22;17660;52.578;13.288;2023-04-15T11:00:15;12.50;99.90
30983;DHT22;17660;52.578;13.288;2023-04-15T11:02:45;12.60;99.90
30983;DHT22;17660;52.578;13.288;2023-04-15T11:05:16;12.50;99.90
30983;DHT22;17660;52.578;13.288;2023-04-15T11:12:40;12.60;99.90
30983;DHT22;17660;52.578;13.288;2023-04-15T11:17:52;12.60;99.90
30983;DHT22;17660;52.578;13.288;2023-04-15T11:20:19;12.60;99.90
30983;DHT22;17660;52.578;13.288;2023-04-15T11:22:49;12.60;99.90
30983;DHT22;17660;52.578;13.288;2023-04-15T11:25:29;12.60;99.90
30983;DHT22;17660;52.578;13.288;2023-04-15T11:27:57;12.50;99.90
30983;DHT22;17660;52.578;13.288;2023-04-15T11:30:25;12.60;99.90
30983;DHT22;17660;52.578;13.288;2023-04-15T11:32:53;12.60;99.90
30983;DHT22;17660;52.578;13.288;2023-04-15T11:35:20;12.60;99.90
30983;DHT22;17660;52.578;13.288;2023-04-15T11:37:47;12.60;99.90
30983;DHT22;17660;52.578;13.288;2023-04-15T11:40:27;12.60;99.90
30983;DHT22;17660;52.578;13.288;2023-04-15T11:43:04;12.50;99.90
30983;DHT22;17660;52.578;13.288;2023-04-15T11:45:35;12.50;99.90
30983;DHT22;17660;52.578;13.288;2023-04-15T11:48:08;12.50;99.90
30983;DHT22;17660;52.578;13.288;2023-04-15T11:50:36;12.60;99.90
30983;DHT22;17660;52.578;13.288;2023-04-15T11:53:04;12.60;99.90
30983;DHT22;17660;52.578;13.288;2023-04-15T11:55:40;12.60;99.90
30983;DHT22;17660;52.578;13.288;2023-04-15T12:00:35;12.50;99.90
30983;DHT22;17660;52.578;13.288;2023-04-15T12:03:16;12.50;99.90
30983;DHT22;17660;52.578;13.288;2023-04-15T12:08:47;12.50;99.90
30983;DHT22;17660;52.578;13.288;2023-04-15T12:11:15;12.40;99.90
30983;DHT22;17660;52.578;13.288;2023-04-15T12:13:45;12.40;99.90
30983;DHT22;17660;52.578;13.288;2023-04-15T12:16:15;12.40;99.90
30983;DHT22;17660;52.578;13.288;2023-04-15T12:18:44;12.40;99.90
30983;DHT22;17660;52.578;13.288;2023-04-15T12:21:10;12.40;99.90
30983;DHT22;17660;52.578;13.288;2023-04-15T12:23:37;12.40;99.90
30983;DHT22;17660;52.578;13.288;2023-04-15T12:26:04;12.40;99.90
30983;DHT22;17660;52.578;13.288;2023-04-15T12:28:35;12.50;99.90
30983;DHT22;17660;52.578;13.288;2023-04-15T12:31:11;12.50;99.90
30983;DHT22;17660;52.578;13.288;2023-04-15T12:33:38;12.60;99.90
30983;DHT22;17660;52.578;13.288;2023-04-15T12:36:05;12.70;99.90
30983;DHT22;17660;52.578;13.288;2023-04-15T12:38:32;12.70;99.90
30983;DHT22;17660;52.578;13.288;2023-04-15T12:40:59;12.80;99.90
30983;DHT22;17660;52.578;13.288;2023-04-15T12:43:25;12.80;99.90
30983;DHT22;17660;52.578;13.288;2023-04-15T12:45:52;12.80;99.90
30983;DHT22;17660;52.578;13.288;2023-04-15T12:48:19;12.80;99.90
30983;DHT22;17660;52.578;13.288;2023-04-15T12:50:46;12.80;99.90
30983;DHT22;17660;52.578;13.288;2023-04-15T12:53:12;12.80;99.90
30983;DHT22;17660;52.578;13.288;2023-04-15T12:55:39;12.80;99.90
30983;DHT22;17660;52.578;13.288;2023-04-15T12:58:05;12.80;99.90
30983;DHT22;17660;52.578;13.288;2023-04-15T13:00:33;12.80;99.90
30983;DHT22;17660;52.578;13.288;2023-04-15T13:02:59;12.80;99.90
30983;DHT22;17660;52.578;13.288;2023-04-15T13:05:27;12.80;99.90
30983;DHT22;17660;52.578;13.288;2023-04-15T13:07:54;12.80;99.90
30983;DHT22;17660;52.578;13.288;2023-04-15T13:10:20;12.80;99.90
30983;DHT22;17660;52.578;13.288;2023-04-15T13:12:48;12.80;99.90
30983;DHT22;17660;52.578;13.288;2023-04-15T13:15:18;12.70;99.90
30983;DHT22;17660;52.578;13.288;2023-04-15T13:17:46;12.80;99.90
30983;DHT22;17660;52.578;13.288;2023-04-15T13:20:13;12.80;99.90
30983;DHT22;17660;52.578;13.288;2023-04-15T13:22:40;12.70;99.90
30983;DHT22;17660;52.578;13.288;2023-04-15T13:25:06;12.70;99.90
30983;DHT22;17660;52.578;13.288;2023-04-15T13:27:33;12.70;99.90
30983;DHT22;17660;52.578;13.288;2023-04-15T13:30:00;12.70;99.90
30983;DHT22;17660;52.578;13.288;2023-04-15T13:32:27;12.70;99.90
30983;DHT22;17660;52.578;13.288;2023-04-15T13:34:53;12.70;99.90
30983;DHT22;17660;52.578;13.288;2023-04-15T13:37:27;12.70;99.90
30983;DHT22;17660;52.578;13.288;2023-04-15T13:39:54;12.70;99.90
30983;DHT22;17660;52.578;13.288;2023-04-15T13:42:22;12.60;99.90
30983;DHT22;17660;52.578;13.288;2023-04-15T13:44:49;12.60;99.90
30983;DHT22;17660;52.578;13.288;2023-04-15T13:47:18;12.60;99.90
30983;DHT22;17660;52.578;13.288;2023-04-15T13:49:44;12.60;99.90
30983;DHT22;17660;52.578;13.288;2023-04-15T13:52:11;12.70;99.90
30983;DHT22;17660;52.578;13.288;2023-04-15T13:54:38;12.70;99.90
30983;DHT22;17660;52.578;13.288;2023-04-15T13:57:05;12.60;99.90
30983;DHT22;17660;52.578;13.288;2023-04-15T13:59:32;12.70;99.90
30983;DHT22;17660;52.578;13.288;2023-04-15T14:01:59;12.60;99.90
30983;DHT22;17660;52.578;13.288;2023-04-15T14:04:26;12.60;99.90
30983;DHT22;17660;52.578;13.288;2023-04-15T14:06:53;12.60;99.90
30983;DHT22;17660;52.578;13.288;2023-04-15T14:09:20;12.50;99.90
30983;DHT22;17660;52.578;13.288;2023-04-15T14:11:51;12.50;99.90
30983;DHT22;17660;52.578;13.288;2023-04-15T14:14:18;12.50;99.90
30983;DHT22;17660;52.578;13.288;2023-04-15T14:16:45;12.50;99.90
30983;DHT22;17660;52.578;13.288;2023-04-15T14:19:12;12.50;99.90
30983;DHT22;17660;52.578;13.288;2023-04-15T14:21:38;12.50;99.90
30983;DHT22;17660;52.578;13.288;2023-04-15T14:24:05;12.40;99.90
30983;DHT22;17660;52.578;13.288;2023-04-15T14:26:31;12.40;99.90
30983;DHT22;17660;52.578;13.288;2023-04-15T14:28:58;12.40;99.90
30983;DHT22;17660;52.578;13.288;2023-04-15T14:31:25;12.40;99.90
30983;DHT22;17660;52.578;13.288;2023-04-15T14:33:51;12.40;99.90
30983;DHT22;17660;52.578;13.288;2023-04-15T14:36:18;12.30;99.90
30983;DHT22;17660;52.578;13.288;2023-04-15T14:38:45;12.30;99.90
30983;DHT22;17660;52.578;13.288;2023-04-15T14:41:14;12.40;99.90
30983;DHT22;17660;52.578;13.288;2023-04-15T14:43:41;12.40;99.90
30983;DHT22;17660;52.578;13.288;2023-04-15T14:46:09;12.40;99.90
30983;DHT22;17660;52.578;13.288;2023-04-15T14:48:36;12.30;99.90
30983;DHT22;17660;52.578;13.288;2023-04-15T14:51:02;12.30;99.90
30983;DHT22;17660;52.578;13.288;2023-04-15T14:53:29;12.30;99.90
30983;DHT22;17660;52.578;13.288;2023-04-15T14:55:56;12.30;99.90
30983;DHT22;17660;52.578;13.288;2023-04-15T14:58:22;12.30;99.90
30983;DHT22;17660;52.578;13.288;2023-04-15T15:00:49;12.30;99.90
30983;DHT22;17660;52.578;13.288;2023-04-15T15:03:16;12.30;99.90
30983;DHT22;17660;52.578;13.288;2023-04-15T15:05:44;12.30;99.90
30983;DHT22;17660;52.578;13.288;2023-04-15T15:08:12;12.30;99.90
30983;DHT22;17660;52.578;13.288;2023-04-15T15:10:39;12.30;99.90
30983;DHT22;17660;52.578;13.288;2023-04-15T15:13:15;12.30;99.90
30983;DHT22;17660;52.578;13.288;2023-04-15T15:15:42;12.30;99.90
30983;DHT22;17660;52.578;13.288;2023-04-15T15:18:09;12.30;99.90
30983;DHT22;17660;52.578;13.288;2023-04-15T15:20:36;12.20;99.90
30983;DHT22;17660;52.578;13.288;2023-04-15T15:23:02;12.20;99.90
30983;DHT22;17660;52.578;13.288;2023-04-15T15:25:29;12.20;99.90
30983;DHT22;17660;52.578;13.288;2023-04-15T15:27:56;12.20;99.90
30983;DHT22;17660;52.578;13.288;2023-04-15T15:30:23;12.30;99.90